Time;durP1;ratioP1;P1;durP2;ratioP2;P2;SDS_P1;SDS_P2;PMS_P1;PMS_P2;Temp;Humidity;BMP_temperature;BMP_pressure;BME280_temperature;BME280_humidity;BME280_pressure;Samples;Min_cycle;Max_cycle;Signal;HPM_P1;HPM_P2
2024/04/19 00:03:22;;;;;;;0.00;0.00;;;;;;;6.86;68.98;100829.31;16781257;26;20011;-50
2024/04/19 00:10:57;;;;;;;0.00;0.00;;;;;;;7.04;68.41;100826.28;16780704;26;20004;-51
2024/04/19 00:18:35;;;;;;;0.00;0.00;;;;;;;6.81;70.08;100822.88;16779349;26;20010;-50
2024/04/19 00:26:10;;;;;;;0.00;0.00;;;;;;;6.71;70.72;100822.28;16780216;26;20497;-51
2024/04/19 00:33:48;;;;;;;0.00;0.00;;;;;;;7.05;70.01;100809.25;16765795;26;20355;-52
2024/04/19 00:41:25;;;;;;;0.00;0.00;;;;;;;6.75;70.76;100804.91;16789049;26;20373;-48
2024/04/19 00:49:02;;;;;;;0.00;0.00;;;;;;;7.14;69.72;100792.13;16792513;26;20003;-47
2024/04/19 00:56:41;;;;;;;0.00;0.00;;;;;;;7.33;69.27;100787.19;16788296;26;20440;-49
2024/04/19 01:04:20;;;;;;;0.00;0.00;;;;;;;7.15;69.46;100782.25;16788332;26;20076;-49
2024/04/19 01:12:02;;;;;;;0.00;0.00;;;;;;;7.09;69.55;100775.84;16788726;26;20010;-48
2024/04/19 01:19:40;;;;;;;0.40;0.40;;;;;;;6.63;72.35;100757.38;16787566;26;20064;-49
2024/04/19 01:27:39;;;;;;;0.00;0.00;;;;;;;7.01;69.33;100745.75;16786468;26;20111;-50
2024/04/19 01:35:14;;;;;;;0.10;0.10;;;;;;;6.92;69.47;100736.19;16786552;26;20004;-49
2024/04/19 01:42:53;;;;;;;0.00;0.00;;;;;;;7.38;68.10;100726.03;16786441;26;20011;-54
2024/04/19 01:50:28;;;;;;;0.00;0.00;;;;;;;7.34;67.52;100712.25;16789140;26;20015;-52
2024/04/19 01:58:07;;;;;;;0.28;0.17;;;;;;;6.50;70.45;100705.69;16785778;26;20010;-52
2024/04/19 02:05:43;;;;;;;0.00;0.00;;;;;;;5.91;72.76;100689.59;16771367;26;20512;-52
2024/04/19 02:13:21;;;;;;;0.08;0.08;;;;;;;5.76;72.87;100676.25;16784817;26;19996;-52
2024/04/19 02:21:01;;;;;;;;;;;;;;;6.31;70.69;100667.09;16786368;26;20119;-52
2024/04/19 02:36:35;;;;;;;0.03;0.03;;;;;;;6.32;69.84;100639.41;16784466;26;20388;-47
2024/04/19 02:44:13;;;;;;;0.00;0.00;;;;;;;6.37;70.32;100615.69;16784027;26;20003;-51
2024/04/19 02:51:48;;;;;;;0.10;0.10;;;;;;;6.21;71.16;100605.25;16787817;26;20000;-51
2024/04/19 02:59:28;;;;;;;1.65;0.25;;;;;;;6.87;69.32;100592.69;16782375;26;20034;-49
2024/04/19 03:07:12;;;;;;;0.00;0.00;;;;;;;6.47;70.21;100580.72;16782891;26;20115;-52
2024/04/19 03:14:50;;;;;;;0.00;0.00;;;;;;;5.80;72.39;100568.38;16783048;26;20003;-50
2024/04/19 03:22:26;;;;;;;0.30;0.30;;;;;;;6.00;72.13;100550.84;16716095;21;20516;-48
2024/04/19 03:30:06;;;;;;;0.00;0.00;;;;;;;6.35;71.62;100541.25;16730987;26;20082;-47
2024/04/19 03:37:56;;;;;;;0.00;0.00;;;;;;;5.98;72.55;100528.91;16790192;26;19999;-49
2024/04/19 03:45:44;;;;;;;0.00;0.00;;;;;;;5.86;72.90;100525.00;16789977;26;20084;-47
2024/04/19 03:53:19;;;;;;;0.00;0.00;;;;;;;5.73;74.39;100508.84;16789476;26;20018;-48
2024/04/19 04:00:57;;;;;;;0.00;0.00;;;;;;;6.00;73.46;100494.06;16790102;26;20007;-48
2024/04/19 04:08:32;;;;;;;0.00;0.00;;;;;;;6.21;72.43;100483.47;16789514;26;20434;-49
2024/04/19 04:16:11;;;;;;;0.00;0.00;;;;;;;6.03;73.74;100470.56;16787033;26;20047;-46
2024/04/19 04:23:46;;;;;;;0.00;0.00;;;;;;;5.87;73.68;100460.06;16787546;26;20010;-50
2024/04/19 04:31:27;;;;;;;0.00;0.00;;;;;;;5.74;74.02;100450.09;16785588;26;20003;-48
2024/04/19 04:39:02;;;;;;;0.15;0.15;;;;;;;5.94;74.43;100442.38;16787881;26;20019;-48
2024/04/19 04:46:41;;;;;;;0.00;0.00;;;;;;;6.15;72.56;100444.22;16786529;26;20147;-52
2024/04/19 04:54:16;;;;;;;0.00;0.00;;;;;;;6.05;72.96;100433.88;16787243;26;20000;-46
2024/04/19 05:01:56;;;;;;;0.00;0.00;;;;;;;5.97;73.55;100414.50;16786313;26;20522;-48
2024/04/19 05:09:32;;;;;;;0.00;0.00;;;;;;;6.11;73.94;100401.16;16786773;26;20014;-52
2024/04/19 05:17:28;;;;;;;0.70;0.43;;;;;;;6.24;73.52;100388.97;16760901;26;20624;-49
2024/04/19 05:25:06;;;;;;;0.17;0.17;;;;;;;6.62;72.00;100365.50;16795213;26;20000;-48
2024/04/19 05:32:44;;;;;;;0.00;0.00;;;;;;;6.81;72.14;100358.69;16798750;26;20014;-48
2024/04/19 05:40:19;;;;;;;0.20;0.20;;;;;;;6.75;72.07;100346.13;16792552;26;20004;-48
2024/04/19 05:47:57;;;;;;;0.20;0.20;;;;;;;6.61;71.44;100347.88;16796588;26;20042;-47
2024/04/19 05:55:32;;;;;;;0.00;0.00;;;;;;;6.60;71.72;100338.22;16797729;26;20007;-48
2024/04/19 06:03:10;;;;;;;0.00;0.00;;;;;;;7.08;71.27;100343.66;16795065;26;20014;-51
2024/04/19 06:10:47;;;;;;;0.00;0.00;;;;;;;6.72;72.24;100320.69;16796059;26;20226;-51
2024/04/19 06:18:28;;;;;;;0.08;0.05;;;;;;;6.74;71.47;100310.63;16794035;26;20074;-49
2024/04/19 06:26:05;;;;;;;0.00;0.00;;;;;;;6.59;73.63;100300.06;16795312;26;20018;-48
2024/04/19 06:33:44;;;;;;;0.00;0.00;;;;;;;6.49;74.31;100278.25;16792395;26;19995;-47
2024/04/19 06:41:20;;;;;;;0.10;0.10;;;;;;;6.35;73.40;100263.19;16789511;26;20000;-50
2024/04/19 06:48:57;;;;;;;0.00;0.00;;;;;;;6.38;74.61;100252.94;16793310;26;20035;-53
2024/04/19 06:56:33;;;;;;;0.00;0.00;;;;;;;6.07;73.17;100223.22;16794477;26;20363;-47
2024/04/19 07:04:12;;;;;;;0.03;0.03;;;;;;;5.94;73.66;100213.28;16786385;26;20401;-52
2024/04/19 07:11:48;;;;;;;0.00;0.00;;;;;;;5.93;74.91;100200.16;16793208;26;20000;-47
2024/04/19 07:19:25;;;;;;;0.00;0.00;;;;;;;6.41;73.62;100190.44;16789622;26;20003;-52
2024/04/19 07:27:02;;;;;;;0.00;0.00;;;;;;;6.28;72.93;100147.72;16791761;26;20003;-51
2024/04/19 07:34:40;;;;;;;0.25;0.25;;;;;;;6.53;74.18;100142.72;16791835;26;19995;-50
2024/04/19 07:42:16;;;;;;;0.00;0.00;;;;;;;6.32;72.74;100127.66;16791724;26;20105;-48
2024/04/19 07:50:00;;;;;;;0.15;0.10;;;;;;;6.13;74.34;100106.03;16790434;26;20015;-49
2024/04/19 07:57:35;;;;;;;0.10;0.10;;;;;;;6.18;73.99;100094.78;16757593;26;20003;-48
2024/04/19 08:05:13;;;;;;;0.00;0.00;;;;;;;6.09;74.29;100083.44;16791895;26;20003;-49
2024/04/19 08:12:49;;;;;;;0.00;0.00;;;;;;;6.45;73.51;100065.59;16777661;26;20470;-52
2024/04/19 08:20:30;;;;;;;0.00;0.00;;;;;;;6.28;73.95;100047.25;16791033;26;20831;-49
2024/04/19 08:28:06;;;;;;;0.10;0.10;;;;;;;6.26;74.16;100012.00;16790516;26;20450;-51
2024/04/19 08:35:43;;;;;;;0.00;0.00;;;;;;;6.59;73.63;100032.59;16791681;26;19999;-50
2024/04/19 08:43:19;;;;;;;0.03;0.03;;;;;;;6.81;73.80;100011.94;16791789;26;20457;-50
2024/04/19 08:51:13;;;;;;;0.43;0.43;;;;;;;6.89;74.08;99995.72;16788019;26;20000;-49
2024/04/19 08:58:50;;;;;;;0.00;0.00;;;;;;;6.60;74.99;99975.56;16779972;26;20441;-49
2024/04/19 09:06:30;;;;;;;0.08;0.08;;;;;;;6.95;75.05;99975.38;16798008;26;20015;-49
2024/04/19 09:14:06;;;;;;;0.05;0.05;;;;;;;6.86;76.70;99972.13;16798732;26;20003;-48
2024/04/19 09:21:47;;;;;;;0.00;0.00;;;;;;;6.69;78.29;99965.53;16809693;21;20007;-50
2024/04/19 09:29:22;;;;;;;0.10;0.10;;;;;;;6.65;79.98;99954.44;16800008;26;20000;-51
2024/04/19 09:37:00;;;;;;;0.00;0.00;;;;;;;6.55;81.31;99952.19;16799992;26;20000;-50
2024/04/19 09:44:38;;;;;;;0.22;0.22;;;;;;;6.66;80.44;99937.41;16769134;26;20395;-51
2024/04/19 09:52:22;;;;;;;0.20;0.20;;;;;;;6.85;80.50;99927.78;16799536;26;20018;-52
2024/04/19 10:00:02;;;;;;;0.00;0.00;;;;;;;6.37;82.73;99906.63;16796799;26;19999;-51
2024/04/19 10:07:56;;;;;;;0.00;0.00;;;;;;;6.79;82.06;99899.28;16796864;26;20017;-51
2024/04/19 10:15:31;;;;;;;0.00;0.00;;;;;;;6.33;82.07;99879.56;16794722;26;20019;-50
2024/04/19 10:23:13;;;;;;;0.20;0.20;;;;;;;6.44;82.61;99880.81;16796054;26;20229;-51
2024/04/19 10:30:50;;;;;;;0.10;0.10;;;;;;;6.24;83.44;99875.47;16797703;26;20345;-52
2024/04/19 10:38:29;;;;;;;0.00;0.00;;;;;;;6.53;83.50;99857.47;16796922;26;20275;-49
2024/04/19 10:46:04;;;;;;;0.00;0.00;;;;;;;6.33;82.62;99860.09;16797236;26;20018;-50
2024/04/19 10:53:42;;;;;;;0.00;0.00;;;;;;;6.43;82.41;99852.50;16796012;26;20425;-49
2024/04/19 11:01:19;;;;;;;0.20;0.20;;;;;;;6.69;83.25;99840.19;16795803;26;20442;-49
2024/04/19 11:08:56;;;;;;;0.00;0.00;;;;;;;6.55;82.74;99834.88;16795552;26;20000;-49
2024/04/19 11:16:32;;;;;;;0.00;0.00;;;;;;;6.65;83.34;99821.94;16794052;26;19999;-49
2024/04/19 11:24:11;;;;;;;0.00;0.00;;;;;;;6.68;83.66;99815.38;16793766;26;20051;-51
2024/04/19 11:31:47;;;;;;;0.00;0.00;;;;;;;6.24;82.71;99800.03;16794166;26;19995;-50
2024/04/19 11:39:25;;;;;;;0.00;0.00;;;;;;;5.85;83.05;99794.44;16793349;26;20004;-49
2024/04/19 11:47:06;;;;;;;;;;;;;;;5.68;83.47;99784.38;16794987;26;20010;-52
2024/04/19 11:54:46;;;;;;;0.00;0.00;;;;;;;5.77;82.44;99780.50;16794229;26;20499;-50
2024/04/19 12:02:22;;;;;;;0.00;0.00;;;;;;;5.85;81.72;99783.78;16792991;26;20015;-54
2024/04/19 12:10:00;;;;;;;0.00;0.00;;;;;;;5.75;82.67;99769.25;16750721;26;20422;-51
2024/04/19 12:17:37;;;;;;;0.00;0.00;;;;;;;6.04;81.21;99760.88;16792588;26;19999;-49
2024/04/19 12:25:14;;;;;;;0.00;0.00;;;;;;;6.08;82.83;99748.78;16792419;26;20011;-51
2024/04/19 12:32:49;;;;;;;0.22;0.22;;;;;;;6.27;81.88;99741.81;16789674;26;20012;-50
2024/04/19 12:40:27;;;;;;;0.00;0.00;;;;;;;6.52;80.95;99728.66;16791158;26;20014;-51
2024/04/19 12:48:05;;;;;;;0.00;0.00;;;;;;;7.32;80.97;99723.84;16792153;26;20406;-52
2024/04/19 12:55:45;;;;;;;0.00;0.00;;;;;;;7.44;79.63;99723.16;16791620;26;19999;-49
2024/04/19 13:03:24;;;;;;;0.00;0.00;;;;;;;7.61;78.71;99721.63;16791006;26;20321;-51
2024/04/19 13:11:02;;;;;;;0.10;0.10;;;;;;;7.05;80.68;99720.47;16792036;26;20004;-51
2024/04/19 13:18:38;;;;;;;0.00;0.00;;;;;;;7.65;78.70;99701.47;16790100;26;20011;-49
2024/04/19 13:26:17;;;;;;;0.00;0.00;;;;;;;7.82;79.00;99691.84;16788939;26;20742;-48
2024/04/19 13:33:52;;;;;;;0.00;0.00;;;;;;;8.03;77.50;99684.50;16757781;26;20003;-52
2024/04/19 13:41:30;;;;;;;0.00;0.00;;;;;;;9.19;73.96;99664.88;16788615;26;20014;-51
2024/04/19 13:49:05;;;;;;;0.00;0.00;;;;;;;9.63;73.60;99633.31;16798969;26;20003;-51
2024/04/19 13:56:44;;;;;;;0.00;0.00;;;;;;;9.59;72.73;99643.66;16798962;26;19996;-51
2024/04/19 14:04:20;;;;;;;0.00;0.00;;;;;;;9.14;73.45;99609.34;16797526;26;20000;-53
2024/04/19 14:11:59;;;;;;;0.00;0.00;;;;;;;9.19;73.43;99640.78;16797617;26;20470;-52
2024/04/19 14:19:35;;;;;;;0.00;0.00;;;;;;;9.17;72.69;99627.63;16797105;26;19996;-49
2024/04/19 14:27:13;;;;;;;0.00;0.00;;;;;;;9.24;72.47;99624.84;16796988;26;20012;-52
2024/04/19 14:34:49;;;;;;;0.13;0.13;;;;;;;8.87;73.00;99629.50;16797256;26;20006;-53
2024/04/19 14:42:28;;;;;;;0.47;0.45;;;;;;;8.96;74.21;99628.13;16797448;26;20039;-51
2024/04/19 14:50:08;;;;;;;0.00;0.00;;;;;;;8.74;76.79;99635.00;16796539;26;19999;-52
2024/04/19 14:57:51;;;;;;;0.00;0.00;;;;;;;7.89;82.66;99639.19;16794857;26;20032;-52
2024/04/19 15:05:29;;;;;;;0.00;0.00;;;;;;;7.90;82.88;99624.78;16795697;26;20008;-52
2024/04/19 15:13:07;;;;;;;0.00;0.00;;;;;;;8.66;81.31;99623.56;16795244;26;20012;-51
2024/04/19 15:20:45;;;;;;;0.00;0.00;;;;;;;9.31;78.69;99611.34;16796618;26;19999;-52
2024/04/19 15:29:09;;;;;;;0.00;0.00;;;;;;;9.42;76.84;99603.38;16758453;26;20003;-50
2024/04/19 15:36:51;;;;;;;0.00;0.00;;;;;;;9.65;73.72;99591.00;16794865;26;20007;-50
2024/04/19 15:44:26;;;;;;;0.00;0.00;;;;;;;9.55;75.92;99586.22;16794591;26;20505;-48
2024/04/19 15:52:04;;;;;;;0.00;0.00;;;;;;;9.17;77.89;99594.69;16793624;26;20003;-51
2024/04/19 15:59:43;;;;;;;0.00;0.00;;;;;;;9.45;76.53;99596.72;16787226;26;20004;-53
2024/04/19 16:07:21;;;;;;;0.30;0.30;;;;;;;9.16;78.25;99593.88;16788788;26;20007;-48
2024/04/19 16:15:00;;;;;;;0.15;0.15;;;;;;;9.40;79.36;99593.91;16792987;26;20036;-48
2024/04/19 16:22:39;;;;;;;0.30;0.25;;;;;;;9.41;77.18;99582.16;16773226;26;20007;-49
2024/04/19 16:30:15;;;;;;;0.00;0.00;;;;;;;9.31;75.20;99581.91;16789235;26;20000;-49
2024/04/19 16:37:53;;;;;;;0.00;0.00;;;;;;;9.19;77.42;99584.56;16791730;26;20075;-51
2024/04/19 16:45:30;;;;;;;0.00;0.00;;;;;;;9.59;76.42;99592.75;16792138;26;20004;-50
2024/04/19 16:53:07;;;;;;;0.10;0.10;;;;;;;9.29;75.90;99586.69;16790614;26;20012;-50
2024/04/19 17:00:47;;;;;;;0.10;0.10;;;;;;;9.22;75.89;99589.44;16783962;26;20008;-48
2024/04/19 17:08:25;;;;;;;0.00;0.00;;;;;;;9.11;75.60;99582.22;16789813;26;20014;-50
2024/04/19 17:16:01;;;;;;;0.00;0.00;;;;;;;9.20;75.32;99584.34;16787869;26;20098;-52
2024/04/19 17:23:42;;;;;;;0.15;0.15;;;;;;;8.92;77.72;99579.59;16799352;26;19996;-53
2024/04/19 17:31:18;;;;;;;0.00;0.00;;;;;;;8.74;79.37;99570.81;16797450;26;20003;-50
2024/04/19 17:38:57;;;;;;;0.00;0.00;;;;;;;8.87;79.39;99578.66;16800983;26;20054;-49
2024/04/19 17:46:37;;;;;;;0.00;0.00;;;;;;;8.79;78.56;99574.44;16801507;26;20097;-49
2024/04/19 17:54:18;;;;;;;0.00;0.00;;;;;;;8.92;78.55;99581.47;16796426;26;19999;-48
2024/04/19 18:01:56;;;;;;;0.00;0.00;;;;;;;8.58;78.90;99585.59;16797031;26;20040;-47
2024/04/19 18:09:34;;;;;;;0.00;0.00;;;;;;;7.84;79.65;99606.97;16799194;26;20000;-47
2024/04/19 18:17:09;;;;;;;0.00;0.00;;;;;;;7.23;79.28;99613.03;16799238;26;20395;-48
2024/04/19 18:24:47;;;;;;;0.00;0.00;;;;;;;7.22;78.37;99566.00;16795933;26;20000;-52
2024/04/19 18:32:23;;;;;;;0.20;0.10;;;;;;;7.52;77.72;99629.44;16797337;26;20015;-52
2024/04/19 18:40:00;;;;;;;0.00;0.00;;;;;;;7.50;77.02;99636.84;16798270;26;20014;-48
2024/04/19 18:47:40;;;;;;;0.00;0.00;;;;;;;7.46;76.80;99628.47;16796945;26;19996;-49
2024/04/19 18:55:18;;;;;;;0.00;0.00;;;;;;;7.05;79.29;99637.78;16797529;26;19999;-49
2024/04/19 19:02:55;;;;;;;0.00;0.00;;;;;;;7.00;78.95;99640.25;16798838;26;20068;-50
2024/04/19 19:10:37;;;;;;;0.00;0.00;;;;;;;7.09;78.98;99654.19;16798469;26;20522;-51
2024/04/19 19:18:12;;;;;;;0.00;0.00;;;;;;;6.71;79.33;99654.94;16797324;26;20008;-52
2024/04/19 19:25:50;;;;;;;0.00;0.00;;;;;;;6.66;80.02;99676.09;16758331;26;20375;-48
2024/04/19 19:33:26;;;;;;;0.00;0.00;;;;;;;6.83;81.15;99677.28;16770957;26;19999;-49
2024/04/19 19:41:06;;;;;;;0.08;0.08;;;;;;;6.48;81.71;99676.81;16745867;26;20011;-51
2024/04/19 19:48:42;;;;;;;0.00;0.00;;;;;;;6.54;80.55;99677.81;16783046;26;20076;-49
2024/04/19 19:56:20;;;;;;;0.00;0.00;;;;;;;6.74;80.56;99688.38;16793623;26;20039;-51
2024/04/19 20:12:01;;;;;;;0.10;0.00;;;;;;;6.78;82.03;99673.59;16618014;26;20043;-49
2024/04/19 20:19:40;;;;;;;0.00;0.00;;;;;;;7.02;79.93;99683.53;16792585;26;20072;-50
2024/04/19 20:27:18;;;;;;;0.00;0.00;;;;;;;7.18;78.66;99697.41;16790584;26;20079;-52
2024/04/19 20:34:54;;;;;;;1.65;0.45;;;;;;;6.55;80.79;99708.75;16792888;26;20331;-49
2024/04/19 20:42:33;;;;;;;0.00;0.00;;;;;;;6.55;81.82;99706.91;16817449;26;20446;-53
2024/04/19 20:50:13;;;;;;;0.52;0.52;;;;;;;6.47;82.31;99704.47;16812026;26;20077;-56
2024/04/19 20:57:51;;;;;;;0.00;0.00;;;;;;;7.10;79.97;99715.31;16836718;26;19996;-54
2024/04/19 21:05:27;;;;;;;0.00;0.00;;;;;;;6.82;79.87;99712.16;16809553;26;20045;-47
2024/04/19 21:13:05;;;;;;;0.00;0.00;;;;;;;6.84;80.90;99720.75;16787775;26;20060;-52
2024/04/19 21:20:41;;;;;;;0.00;0.00;;;;;;;6.86;80.99;99716.06;16784728;26;20011;-53
2024/04/19 21:28:20;;;;;;;0.00;0.00;;;;;;;6.96;79.79;99727.09;16787261;26;19999;-54
2024/04/19 21:35:58;;;;;;;0.00;0.00;;;;;;;6.99;79.09;99739.97;16786638;26;20081;-54
2024/04/19 21:43:43;;;;;;;0.00;0.00;;;;;;;6.80;79.81;99749.69;16786086;26;19995;-50
2024/04/19 21:51:18;;;;;;;0.00;0.00;;;;;;;6.81;79.88;99745.22;16795561;26;20441;-54
2024/04/19 21:58:59;;;;;;;0.00;0.00;;;;;;;6.99;79.13;99753.31;16786537;26;20011;-52
2024/04/19 22:06:35;;;;;;;0.00;0.00;;;;;;;6.98;78.66;99759.69;16797756;26;20022;-53
2024/04/19 22:14:17;;;;;;;0.00;0.00;;;;;;;6.90;77.18;99759.91;16796668;26;20015;-55
2024/04/19 22:21:53;;;;;;;0.05;0.05;;;;;;;6.73;78.15;99766.75;16796460;26;20007;-52
2024/04/19 22:29:38;;;;;;;0.10;0.10;;;;;;;6.52;77.68;99773.97;16797386;26;20000;-55
2024/04/19 22:37:14;;;;;;;0.00;0.00;;;;;;;6.65;77.26;99773.13;16802017;26;20055;-53
2024/04/19 22:44:53;;;;;;;0.00;0.00;;;;;;;6.38;78.79;99783.00;16796613;26;20011;-53
2024/04/19 22:52:29;;;;;;;0.00;0.00;;;;;;;6.05;81.97;99799.00;16792133;26;20568;-52
2024/04/19 23:00:10;;;;;;;0.00;0.00;;;;;;;6.07;82.70;99802.28;16803985;26;20337;-50
2024/04/19 23:07:57;;;;;;;0.28;0.05;;;;;;;6.06;82.88;99803.28;16795631;26;20000;-53
2024/04/19 23:15:36;;;;;;;0.00;0.00;;;;;;;5.82;82.45;99764.72;16793662;26;19999;-52
2024/04/19 23:23:11;;;;;;;0.00;0.00;;;;;;;5.69;82.42;99820.59;16794001;26;19996;-52
2024/04/19 23:30:55;;;;;;;1.00;0.85;;;;;;;6.17;82.56;99818.69;16793235;26;20353;-54
2024/04/19 23:38:32;;;;;;;0.28;0.25;;;;;;;5.52;86.19;99820.16;16791739;26;19999;-52
2024/04/19 23:46:10;;;;;;;0.25;0.25;;;;;;;5.79;84.76;99821.06;16793332;26;20003;-50
2024/04/19 23:53:46;;;;;;;0.10;0.10;;;;;;;6.32;83.53;99832.63;16791558;26;20111;-54
